METAR AND TAF INFORMATION
METAR FOR LIMC
ADDS - METARS form results

(1109 UTC 26 January 2021)
Data provider http://aviationweather.gov/metar/data/
 
METAR text: LIMC 261050Z 36009KT CAVOK 09/M15 Q1017 NOSIG
Conditions at: LIMC (MILANO/MALPENSA , IT) observed 1050 UTC 26 January 2021
Temperature: 9.0°C (48°F)
Dewpoint: -15.0°C ( 5°F) [RH = 17%]
Pressure (altimeter): 30.03 inches Hg (1017.0 mb)
Winds: from the N (360 degrees) at 10 MPH (9 knots; 4.6 m/s)
Visibility: 6 or more miles (10+ km)
Ceiling: ceiling and visibility are OK
Clouds: unknown
Weather: no significant weather observed at this time

METAR text: LIMC 261020Z 35011KT CAVOK 09/M13 Q1017 NOSIG
Conditions at: LIMC (MILANO/MALPENSA , IT) observed 1020 UTC 26 January 2021
Temperature: 9.0°C (48°F)
Dewpoint: -13.0°C ( 9°F) [RH = 20%]
Pressure (altimeter): 30.03 inches Hg (1017.0 mb)
Winds: from the N (350 degrees) at 13 MPH (11 knots; 5.7 m/s)
Visibility: 6 or more miles (10+ km)
Ceiling: ceiling and visibility are OK
Clouds: unknown
Weather: no significant weather observed at this time

Forecast for: LIMC (MILANO/MALPENSA , IT)
Text: TAF LIMC 260500Z 2606/2712 VRB05KT CAVOK
Forecast period: 0600 UTC 26 January 2021 to 1200 UTC 27 January 2021
Forecast type: FROM: standard forecast or significant change
Winds: variable direction winds at 6 MPH (5 knots; 2.6 m/s)
Visibility: 6 or more miles (10+ km)
Ceiling: unknown
Clouds: missing
Weather: NSW  (no significant weather)
Text: TEMPO 2606/2624 36010KT
Forecast period: 0600 UTC 26 January 2021 to 0000 UTC 27 January 2021
Forecast type: TEMPORARY: The following changes expected for less than half the time period
Winds: from the N (360 degrees) at 12 MPH (10 knots; 5.1 m/s)
Visibility: missing
Ceiling: unknown
Clouds: missing
Weather: no significant weather forecast for this period

 AIRPORT MAP

 RUNWAY INFORMATION
Runway 17L Runway length 12861 ft Runway width 197 ft
Runway elevation 745 ft Runway displaced threshold 3094 ft Runway heading 170
Runway 35R Runway length 12861 ft Runway width 197 ft
Runway elevation 691 ft Runway displaced threshold 0 ft Runway heading 350
Runway 17R Runway length 12861 ft Runway width 197 ft
Runway elevation 764 ft Runway displaced threshold 0 ft Runway heading 170
Runway 35L Runway length 12861 ft Runway width 197 ft
Runway elevation 696 ft Runway displaced threshold 1329 ft Runway heading 350

 AIRPORT FREQUENCIES
Type APP Name MILANO APP Frequency 132.7 MHZ
Type ATIS Name ATIS Frequency 120.025 MHZ
Type CLD Name CLNC DEL Frequency 120.9 MHZ
Type DEP Name MILANO DEP Frequency 126.75 MHZ
Type GND Name GND Frequency 121.9 MHZ
Type TWR Name TWR Frequency 119 MHZ

 AIRPORT NEAR NAVIGATION AIDS
Type VOR-DME Name Malpensa Frequency 111200 KHZ
Type NDB Name Malpensa Frequency 364 KHZ